Terminal Aerodrome Forecast
Issued by NWS Mt. Holly, NJ

Home | Current Version | Previous Version | Text Only | Print | Product List | Glossary On
Versions: 1 2 3 4 5 6 7 8 9 10 11 12 13 14 15 16 17 18 19 20
000
FTUS41 KPHI 070559
TAFABE
TAF
KABE 070559Z 0706/0806 06006KT 3SM -DZRA BR OVC005
     FM070800 04004KT 3SM -DZ BR OVC007
      TEMPO 0709/0713 SCT006 OVC012
     FM071300 VRB03KT 4SM BR SCT008 OVC012
     FM071700 30006KT P6SM OVC020
     FM071900 28009KT P6SM SCT025 BKN120
     FM072300 28003KT P6SM SCT150=

USA.gov is the U.S. government's official web portal to all federal, state and local government web resources and services.